sensor_id;sensor_type;location;lat;lon;timestamp;pressure;altitude;pressure_sealevel;temperature;humidity
51067;BME280;37112;45.892;-123.962;2023-05-22T00:01:25;102474.15;;;14.74;66.67
51067;BME280;37112;45.892;-123.962;2023-05-22T00:03:49;102477.89;;;14.68;67.31
51067;BME280;37112;45.892;-123.962;2023-05-22T00:06:14;102473.05;;;14.68;67.89
51067;BME280;37112;45.892;-123.962;2023-05-22T00:08:49;102473.33;;;14.72;68.02
51067;BME280;37112;45.892;-123.962;2023-05-22T00:11:17;102469.36;;;14.83;68.26
51067;BME280;37112;45.892;-123.962;2023-05-22T00:13:41;102466.27;;;15.02;68.53
51067;BME280;37112;45.892;-123.962;2023-05-22T00:16:01;102466.43;;;15.23;68.08
51067;BME280;37112;45.892;-123.962;2023-05-22T00:18:35;102459.89;;;15.34;67.31
51067;BME280;37112;45.892;-123.962;2023-05-22T00:21:15;102460.55;;;15.29;66.64
51067;BME280;37112;45.892;-123.962;2023-05-22T00:23:50;102459.42;;;15.27;67.17
51067;BME280;37112;45.892;-123.962;2023-05-22T00:26:24;102451.99;;;15.22;67.17
51067;BME280;37112;45.892;-123.962;2023-05-22T00:28:49;102451.17;;;15.12;67.23
51067;BME280;37112;45.892;-123.962;2023-05-22T00:31:23;102451.05;;;15.02;67.09
51067;BME280;37112;45.892;-123.962;2023-05-22T00:33:51;102448.64;;;14.91;66.25
51067;BME280;37112;45.892;-123.962;2023-05-22T00:36:28;102448.68;;;14.72;66.52
51067;BME280;37112;45.892;-123.962;2023-05-22T00:38:48;102452.73;;;14.64;67.72
51067;BME280;37112;45.892;-123.962;2023-05-22T00:41:15;102456.63;;;14.52;68.77
51067;BME280;37112;45.892;-123.962;2023-05-22T00:43:43;102454.69;;;14.35;69.32
51067;BME280;37112;45.892;-123.962;2023-05-22T00:46:09;102460.34;;;14.20;70.08
51067;BME280;37112;45.892;-123.962;2023-05-22T00:48:45;102460.96;;;14.09;70.36
51067;BME280;37112;45.892;-123.962;2023-05-22T00:51:11;102460.71;;;14.06;70.78
51067;BME280;37112;45.892;-123.962;2023-05-22T00:53:33;102454.31;;;14.09;71.13
51067;BME280;37112;45.892;-123.962;2023-05-22T00:55:55;102453.36;;;14.13;71.54
51067;BME280;37112;45.892;-123.962;2023-05-22T00:58:21;102457.45;;;14.14;72.13
51067;BME280;37112;45.892;-123.962;2023-05-22T01:00:53;102453.33;;;14.14;71.92
51067;BME280;37112;45.892;-123.962;2023-05-22T01:03:11;102451.42;;;14.10;71.88
51067;BME280;37112;45.892;-123.962;2023-05-22T01:05:37;102445.20;;;14.06;71.93
51067;BME280;37112;45.892;-123.962;2023-05-22T01:07:57;102441.96;;;14.10;72.25
51067;BME280;37112;45.892;-123.962;2023-05-22T01:10:24;102441.19;;;14.11;72.45
51067;BME280;37112;45.892;-123.962;2023-05-22T01:13:05;102437.52;;;14.06;72.24
51067;BME280;37112;45.892;-123.962;2023-05-22T01:15:46;102432.98;;;14.01;72.22
51067;BME280;37112;45.892;-123.962;2023-05-22T01:18:18;102433.78;;;13.96;72.47
51067;BME280;37112;45.892;-123.962;2023-05-22T01:20:46;102431.20;;;13.91;72.63
51067;BME280;37112;45.892;-123.962;2023-05-22T01:24:03;102433.08;;;13.83;73.06
51067;BME280;37112;45.892;-123.962;2023-05-22T01:30:10;102434.25;;;13.41;75.77
51067;BME280;37112;45.892;-123.962;2023-05-22T01:32:43;102434.90;;;13.25;76.30
51067;BME280;37112;45.892;-123.962;2023-05-22T01:35:09;102431.37;;;13.17;75.84
51067;BME280;37112;45.892;-123.962;2023-05-22T01:37:31;102432.10;;;13.13;75.80
51067;BME280;37112;45.892;-123.962;2023-05-22T01:39:58;102430.45;;;13.06;75.53
51067;BME280;37112;45.892;-123.962;2023-05-22T01:42:17;102430.99;;;13.03;75.54
51067;BME280;37112;45.892;-123.962;2023-05-22T01:44:38;102431.89;;;13.03;75.51
51067;BME280;37112;45.892;-123.962;2023-05-22T01:47:06;102433.94;;;13.01;75.46
51067;BME280;37112;45.892;-123.962;2023-05-22T01:49:41;102436.56;;;12.95;76.30
51067;BME280;37112;45.892;-123.962;2023-05-22T01:52:21;102433.17;;;12.88;77.04
51067;BME280;37112;45.892;-123.962;2023-05-22T01:54:56;102433.01;;;12.80;77.36
51067;BME280;37112;45.892;-123.962;2023-05-22T01:57:29;102426.42;;;12.77;77.58
51067;BME280;37112;45.892;-123.962;2023-05-22T01:59:52;102425.00;;;12.77;77.74
51067;BME280;37112;45.892;-123.962;2023-05-22T02:02:20;102423.81;;;12.79;77.98
51067;BME280;37112;45.892;-123.962;2023-05-22T02:04:50;102422.47;;;12.81;78.19
51067;BME280;37112;45.892;-123.962;2023-05-22T02:07:20;102420.27;;;12.82;78.25
51067;BME280;37112;45.892;-123.962;2023-05-22T02:09:41;102418.36;;;12.85;78.52
51067;BME280;37112;45.892;-123.962;2023-05-22T02:12:12;102418.45;;;12.83;78.21
51067;BME280;37112;45.892;-123.962;2023-05-22T02:14:46;102411.61;;;12.88;78.53
51067;BME280;37112;45.892;-123.962;2023-05-22T02:17:08;102410.02;;;12.91;78.53
51067;BME280;37112;45.892;-123.962;2023-05-22T02:19:36;102408.59;;;12.95;78.58
51067;BME280;37112;45.892;-123.962;2023-05-22T02:22:07;102405.63;;;12.97;78.27
51067;BME280;37112;45.892;-123.962;2023-05-22T02:24:48;102408.59;;;12.98;78.22
51067;BME280;37112;45.892;-123.962;2023-05-22T02:27:12;102404.36;;;13.01;78.25
51067;BME280;37112;45.892;-123.962;2023-05-22T02:29:39;102409.73;;;13.03;78.11
51067;BME280;37112;45.892;-123.962;2023-05-22T02:32:00;102412.76;;;13.04;78.05
51067;BME280;37112;45.892;-123.962;2023-05-22T02:34:27;102416.55;;;13.06;78.03
51067;BME280;37112;45.892;-123.962;2023-05-22T02:36:53;102415.11;;;13.10;78.15
51067;BME280;37112;45.892;-123.962;2023-05-22T02:39:19;102416.16;;;13.14;78.20
51067;BME280;37112;45.892;-123.962;2023-05-22T02:41:50;102418.65;;;13.14;77.83
51067;BME280;37112;45.892;-123.962;2023-05-22T02:44:12;102415.59;;;13.11;77.64
51067;BME280;37112;45.892;-123.962;2023-05-22T02:46:34;102411.66;;;13.11;77.79
51067;BME280;37112;45.892;-123.962;2023-05-22T02:48:55;102411.21;;;13.10;77.80
51067;BME280;37112;45.892;-123.962;2023-05-22T02:51:23;102410.05;;;13.08;77.57
51067;BME280;37112;45.892;-123.962;2023-05-22T02:53:54;102407.58;;;13.07;77.60
51067;BME280;37112;45.892;-123.962;2023-05-22T02:56:15;102405.65;;;13.03;77.53
51067;BME280;37112;45.892;-123.962;2023-05-22T02:58:38;102406.19;;;13.00;77.67
51067;BME280;37112;45.892;-123.962;2023-05-22T03:00:59;102404.95;;;12.99;77.70
51067;BME280;37112;45.892;-123.962;2023-05-22T03:03:20;102409.92;;;13.00;77.69
51067;BME280;37112;45.892;-123.962;2023-05-22T03:05:55;102413.00;;;12.99;77.60
51067;BME280;37112;45.892;-123.962;2023-05-22T03:08:21;102415.32;;;12.95;77.48
51067;BME280;37112;45.892;-123.962;2023-05-22T03:10:44;102415.87;;;12.92;77.54
51067;BME280;37112;45.892;-123.962;2023-05-22T03:13:16;102417.55;;;12.87;77.59
51067;BME280;37112;45.892;-123.962;2023-05-22T03:15:39;102415.80;;;12.86;77.94
51067;BME280;37112;45.892;-123.962;2023-05-22T03:18:12;102414.23;;;12.89;78.20
51067;BME280;37112;45.892;-123.962;2023-05-22T03:20:38;102410.70;;;12.92;78.42
51067;BME280;37112;45.892;-123.962;2023-05-22T03:22:58;102414.27;;;12.95;78.47
51067;BME280;37112;45.892;-123.962;2023-05-22T03:25:34;102411.48;;;12.97;78.55
51067;BME280;37112;45.892;-123.962;2023-05-22T03:28:08;102410.77;;;12.97;78.45
51067;BME280;37112;45.892;-123.962;2023-05-22T03:30:43;102411.58;;;12.92;78.09
51067;BME280;37112;45.892;-123.962;2023-05-22T03:33:20;102409.27;;;12.88;78.19
51067;BME280;37112;45.892;-123.962;2023-05-22T03:35:46;102407.23;;;12.87;78.15
51067;BME280;37112;45.892;-123.962;2023-05-22T03:38:15;102408.02;;;12.81;77.99
51067;BME280;37112;45.892;-123.962;2023-05-22T03:40:49;102407.11;;;12.78;78.09
51067;BME280;37112;45.892;-123.962;2023-05-22T03:43:25;102406.63;;;12.77;78.21
51067;BME280;37112;45.892;-123.962;2023-05-22T03:45:58;102408.01;;;12.78;78.43
51067;BME280;37112;45.892;-123.962;2023-05-22T03:48:35;102407.49;;;12.78;78.39
51067;BME280;37112;45.892;-123.962;2023-05-22T03:51:10;102410.94;;;12.76;78.33
51067;BME280;37112;45.892;-123.962;2023-05-22T03:53:39;102415.90;;;12.77;78.56
51067;BME280;37112;45.892;-123.962;2023-05-22T03:56:14;102416.77;;;12.77;78.69
51067;BME280;37112;45.892;-123.962;2023-05-22T03:58:40;102419.09;;;12.77;78.75
51067;BME280;37112;45.892;-123.962;2023-05-22T04:01:13;102421.34;;;12.78;78.87
51067;BME280;37112;45.892;-123.962;2023-05-22T04:03:48;102421.05;;;12.81;78.95
51067;BME280;37112;45.892;-123.962;2023-05-22T04:06:08;102427.58;;;12.79;78.67
51067;BME280;37112;45.892;-123.962;2023-05-22T04:08:30;102432.23;;;12.71;78.69
51067;BME280;37112;45.892;-123.962;2023-05-22T04:11:04;102433.73;;;12.62;79.14
51067;BME280;37112;45.892;-123.962;2023-05-22T04:13:25;102436.05;;;12.55;79.53
51067;BME280;37112;45.892;-123.962;2023-05-22T04:15:54;102439.27;;;12.47;80.13
51067;BME280;37112;45.892;-123.962;2023-05-22T04:18:12;102440.94;;;12.38;79.99
51067;BME280;37112;45.892;-123.962;2023-05-22T04:20:30;102444.70;;;12.31;80.11
51067;BME280;37112;45.892;-123.962;2023-05-22T04:22:57;102440.48;;;12.26;80.13
51067;BME280;37112;45.892;-123.962;2023-05-22T04:25:29;102438.06;;;12.24;80.31
51067;BME280;37112;45.892;-123.962;2023-05-22T04:27:48;102436.95;;;12.25;80.46
51067;BME280;37112;45.892;-123.962;2023-05-22T04:30:09;102438.56;;;12.28;80.75
51067;BME280;37112;45.892;-123.962;2023-05-22T04:32:36;102441.80;;;12.32;80.77
51067;BME280;37112;45.892;-123.962;2023-05-22T04:35:06;102448.69;;;12.36;80.91
51067;BME280;37112;45.892;-123.962;2023-05-22T04:37:28;102451.36;;;12.40;80.94
51067;BME280;37112;45.892;-123.962;2023-05-22T04:39:54;102450.23;;;12.41;80.70
51067;BME280;37112;45.892;-123.962;2023-05-22T04:42:14;102448.70;;;12.44;80.79
51067;BME280;37112;45.892;-123.962;2023-05-22T04:44:34;102450.05;;;12.45;80.69
51067;BME280;37112;45.892;-123.962;2023-05-22T04:46:58;102450.86;;;12.47;80.78
51067;BME280;37112;45.892;-123.962;2023-05-22T04:49:30;102454.06;;;12.51;81.00
51067;BME280;37112;45.892;-123.962;2023-05-22T04:51:52;102454.69;;;12.52;81.00
51067;BME280;37112;45.892;-123.962;2023-05-22T04:54:16;102452.61;;;12.55;81.00
51067;BME280;37112;45.892;-123.962;2023-05-22T04:56:50;102454.01;;;12.55;80.93
51067;BME280;37112;45.892;-123.962;2023-05-22T04:59:24;102455.09;;;12.55;80.89
51067;BME280;37112;45.892;-123.962;2023-05-22T05:02:00;102456.73;;;12.55;80.84
51067;BME280;37112;45.892;-123.962;2023-05-22T05:04:36;102450.54;;;12.54;80.87
51067;BME280;37112;45.892;-123.962;2023-05-22T05:07:11;102451.64;;;12.53;80.85
51067;BME280;37112;45.892;-123.962;2023-05-22T05:09:49;102453.34;;;12.51;80.62
51067;BME280;37112;45.892;-123.962;2023-05-22T05:12:21;102452.23;;;12.44;80.44
51067;BME280;37112;45.892;-123.962;2023-05-22T05:14:55;102452.16;;;12.38;80.28
51067;BME280;37112;45.892;-123.962;2023-05-22T05:17:30;102458.58;;;12.35;80.31
51067;BME280;37112;45.892;-123.962;2023-05-22T05:20:09;102457.06;;;12.29;80.40
51067;BME280;37112;45.892;-123.962;2023-05-22T05:22:46;102460.27;;;12.25;80.45
51067;BME280;37112;45.892;-123.962;2023-05-22T05:25:13;102459.75;;;12.21;80.50
51067;BME280;37112;45.892;-123.962;2023-05-22T05:27:40;102460.11;;;12.17;80.55
51067;BME280;37112;45.892;-123.962;2023-05-22T05:30:12;102461.92;;;12.13;80.48
51067;BME280;37112;45.892;-123.962;2023-05-22T05:32:55;102462.66;;;12.08;80.57
51067;BME280;37112;45.892;-123.962;2023-05-22T05:35:18;102464.59;;;12.05;80.60
51067;BME280;37112;45.892;-123.962;2023-05-22T05:37:57;102464.61;;;12.01;80.64
51067;BME280;37112;45.892;-123.962;2023-05-22T05:40:20;102467.77;;;11.98;80.93
51067;BME280;37112;45.892;-123.962;2023-05-22T05:42:55;102468.73;;;11.96;80.96
51067;BME280;37112;45.892;-123.962;2023-05-22T05:45:21;102466.75;;;11.93;80.98
51067;BME280;37112;45.892;-123.962;2023-05-22T05:47:50;102466.34;;;11.90;81.18
51067;BME280;37112;45.892;-123.962;2023-05-22T05:50:17;102463.96;;;11.87;81.38
51067;BME280;37112;45.892;-123.962;2023-05-22T05:52:51;102459.81;;;11.85;81.40
51067;BME280;37112;45.892;-123.962;2023-05-22T05:55:12;102461.92;;;11.81;81.37
51067;BME280;37112;45.892;-123.962;2023-05-22T05:57:45;102463.90;;;11.81;81.57
51067;BME280;37112;45.892;-123.962;2023-05-22T06:00:08;102461.45;;;11.80;81.83
51067;BME280;37112;45.892;-123.962;2023-05-22T06:02:24;102455.88;;;11.81;82.16
51067;BME280;37112;45.892;-123.962;2023-05-22T06:04:59;102455.38;;;11.80;82.26
51067;BME280;37112;45.892;-123.962;2023-05-22T06:07:18;102460.35;;;11.81;82.31
51067;BME280;37112;45.892;-123.962;2023-05-22T06:09:48;102460.45;;;11.82;82.55
51067;BME280;37112;45.892;-123.962;2023-05-22T06:12:22;102461.86;;;11.83;82.59
51067;BME280;37112;45.892;-123.962;2023-05-22T06:14:58;102460.81;;;11.82;82.69
51067;BME280;37112;45.892;-123.962;2023-05-22T06:17:25;102460.64;;;11.82;82.86
51067;BME280;37112;45.892;-123.962;2023-05-22T06:19:51;102457.84;;;11.81;82.82
51067;BME280;37112;45.892;-123.962;2023-05-22T06:22:17;102459.89;;;11.79;82.87
51067;BME280;37112;45.892;-123.962;2023-05-22T06:24:50;102460.65;;;11.77;82.96
51067;BME280;37112;45.892;-123.962;2023-05-22T06:27:08;102462.48;;;11.77;82.87
51067;BME280;37112;45.892;-123.962;2023-05-22T06:29:34;102464.44;;;11.77;82.88
51067;BME280;37112;45.892;-123.962;2023-05-22T06:32:09;102463.62;;;11.75;82.86
51067;BME280;37112;45.892;-123.962;2023-05-22T06:34:34;102460.27;;;11.74;83.02
51067;BME280;37112;45.892;-123.962;2023-05-22T06:37:09;102460.17;;;11.72;82.87
51067;BME280;37112;45.892;-123.962;2023-05-22T06:39:43;102461.20;;;11.69;82.86
51067;BME280;37112;45.892;-123.962;2023-05-22T06:42:28;102461.09;;;11.68;82.92
51067;BME280;37112;45.892;-123.962;2023-05-22T06:45:03;102458.11;;;11.66;82.93
51067;BME280;37112;45.892;-123.962;2023-05-22T06:47:38;102454.12;;;11.64;83.04
51067;BME280;37112;45.892;-123.962;2023-05-22T06:50:04;102457.27;;;11.65;83.18
51067;BME280;37112;45.892;-123.962;2023-05-22T06:52:42;102454.05;;;11.66;83.14
51067;BME280;37112;45.892;-123.962;2023-05-22T06:55:14;102453.01;;;11.65;83.25
51067;BME280;37112;45.892;-123.962;2023-05-22T06:57:48;102458.15;;;11.62;83.09
51067;BME280;37112;45.892;-123.962;2023-05-22T07:00:24;102460.07;;;11.58;83.58
51067;BME280;37112;45.892;-123.962;2023-05-22T07:02:47;102461.19;;;11.57;83.89
51067;BME280;37112;45.892;-123.962;2023-05-22T07:05:08;102463.48;;;11.58;83.71
51067;BME280;37112;45.892;-123.962;2023-05-22T07:07:44;102463.47;;;11.58;83.56
51067;BME280;37112;45.892;-123.962;2023-05-22T07:10:04;102463.99;;;11.58;83.42
51067;BME280;37112;45.892;-123.962;2023-05-22T07:12:28;102465.51;;;11.61;83.53
51067;BME280;37112;45.892;-123.962;2023-05-22T07:15:11;102464.24;;;11.64;83.65
51067;BME280;37112;45.892;-123.962;2023-05-22T07:17:48;102464.27;;;11.68;83.67
51067;BME280;37112;45.892;-123.962;2023-05-22T07:20:20;102466.54;;;11.69;83.53
51067;BME280;37112;45.892;-123.962;2023-05-22T07:22:56;102466.35;;;11.69;83.52
51067;BME280;37112;45.892;-123.962;2023-05-22T07:25:18;102466.22;;;11.72;83.68
51067;BME280;37112;45.892;-123.962;2023-05-22T07:27:50;102469.72;;;11.73;83.57
51067;BME280;37112;45.892;-123.962;2023-05-22T07:30:15;102466.07;;;11.71;83.39
51067;BME280;37112;45.892;-123.962;2023-05-22T07:32:42;102469.38;;;11.69;83.36
51067;BME280;37112;45.892;-123.962;2023-05-22T07:35:08;102467.10;;;11.69;83.42
51067;BME280;37112;45.892;-123.962;2023-05-22T07:37:35;102462.42;;;11.70;83.60
51067;BME280;37112;45.892;-123.962;2023-05-22T07:39:56;102453.71;;;11.69;83.68
51067;BME280;37112;45.892;-123.962;2023-05-22T07:42:31;102447.35;;;11.69;83.54
51067;BME280;37112;45.892;-123.962;2023-05-22T07:45:08;102446.05;;;11.65;83.32
51067;BME280;37112;45.892;-123.962;2023-05-22T07:47:42;102445.86;;;11.62;83.30
51067;BME280;37112;45.892;-123.962;2023-05-22T07:50:10;102444.80;;;11.62;83.46
51067;BME280;37112;45.892;-123.962;2023-05-22T07:52:35;102443.30;;;11.63;83.60
51067;BME280;37112;45.892;-123.962;2023-05-22T07:54:54;102441.93;;;11.62;83.65
51067;BME280;37112;45.892;-123.962;2023-05-22T07:57:12;102441.34;;;11.63;83.89
51067;BME280;37112;45.892;-123.962;2023-05-22T07:59:41;102443.22;;;11.62;83.66
51067;BME280;37112;45.892;-123.962;2023-05-22T08:02:16;102442.23;;;11.60;83.81
51067;BME280;37112;45.892;-123.962;2023-05-22T08:04:41;102447.40;;;11.59;83.92
51067;BME280;37112;45.892;-123.962;2023-05-22T08:07:17;102444.48;;;11.57;83.70
51067;BME280;37112;45.892;-123.962;2023-05-22T08:09:52;102445.20;;;11.53;83.37
51067;BME280;37112;45.892;-123.962;2023-05-22T08:12:13;102443.94;;;11.54;83.67
51067;BME280;37112;45.892;-123.962;2023-05-22T08:14:42;102444.27;;;11.57;83.86
51067;BME280;37112;45.892;-123.962;2023-05-22T08:17:00;102446.82;;;11.60;83.82
51067;BME280;37112;45.892;-123.962;2023-05-22T08:19:21;102448.42;;;11.64;83.82
51067;BME280;37112;45.892;-123.962;2023-05-22T08:21:53;102446.48;;;11.68;83.91
51067;BME280;37112;45.892;-123.962;2023-05-22T08:24:20;102446.89;;;11.71;83.76
51067;BME280;37112;45.892;-123.962;2023-05-22T08:26:48;102444.84;;;11.72;83.63
51067;BME280;37112;45.892;-123.962;2023-05-22T08:29:23;102443.94;;;11.73;83.44
51067;BME280;37112;45.892;-123.962;2023-05-22T08:31:44;102446.79;;;11.72;83.27
51067;BME280;37112;45.892;-123.962;2023-05-22T08:34:14;102449.30;;;11.73;83.18
51067;BME280;37112;45.892;-123.962;2023-05-22T08:36:38;102445.33;;;11.70;82.78
51067;BME280;37112;45.892;-123.962;2023-05-22T08:38:59;102443.30;;;11.67;82.69
51067;BME280;37112;45.892;-123.962;2023-05-22T08:41:25;102446.35;;;11.67;82.69
51067;BME280;37112;45.892;-123.962;2023-05-22T08:43:59;102443.89;;;11.66;82.68
51067;BME280;37112;45.892;-123.962;2023-05-22T08:46:33;102443.10;;;11.64;82.58
51067;BME280;37112;45.892;-123.962;2023-05-22T08:49:02;102447.56;;;11.60;82.43
51067;BME280;37112;45.892;-123.962;2023-05-22T08:51:40;102448.10;;;11.56;82.37
51067;BME280;37112;45.892;-123.962;2023-05-22T08:54:15;102452.38;;;11.51;82.30
51067;BME280;37112;45.892;-123.962;2023-05-22T08:56:38;102452.13;;;11.49;82.38
51067;BME280;37112;45.892;-123.962;2023-05-22T08:59:21;102449.02;;;11.47;82.43
51067;BME280;37112;45.892;-123.962;2023-05-22T09:01:53;102447.32;;;11.45;82.42
51067;BME280;37112;45.892;-123.962;2023-05-22T09:04:14;102449.20;;;11.42;82.39
51067;BME280;37112;45.892;-123.962;2023-05-22T09:06:48;102447.90;;;11.40;82.41
51067;BME280;37112;45.892;-123.962;2023-05-22T09:09:15;102443.89;;;11.38;82.63
51067;BME280;37112;45.892;-123.962;2023-05-22T09:11:38;102442.52;;;11.37;82.68
51067;BME280;37112;45.892;-123.962;2023-05-22T09:14:08;102445.35;;;11.37;82.83
51067;BME280;37112;45.892;-123.962;2023-05-22T09:16:50;102440.04;;;11.37;83.08
51067;BME280;37112;45.892;-123.962;2023-05-22T09:19:15;102442.31;;;11.38;83.23
51067;BME280;37112;45.892;-123.962;2023-05-22T09:21:49;102446.11;;;11.40;83.38
51067;BME280;37112;45.892;-123.962;2023-05-22T09:24:16;102443.20;;;11.41;83.44
51067;BME280;37112;45.892;-123.962;2023-05-22T09:26:50;102442.02;;;11.40;83.44
51067;BME280;37112;45.892;-123.962;2023-05-22T09:29:26;102444.33;;;11.40;83.48
51067;BME280;37112;45.892;-123.962;2023-05-22T09:32:01;102444.12;;;11.41;83.46
51067;BME280;37112;45.892;-123.962;2023-05-22T09:34:35;102442.52;;;11.40;83.48
51067;BME280;37112;45.892;-123.962;2023-05-22T09:37:09;102438.63;;;11.40;83.53
51067;BME280;37112;45.892;-123.962;2023-05-22T09:39:40;102432.95;;;11.36;83.17
51067;BME280;37112;45.892;-123.962;2023-05-22T09:42:06;102429.83;;;11.34;83.36
51067;BME280;37112;45.892;-123.962;2023-05-22T09:44:40;102430.42;;;11.37;83.55
51067;BME280;37112;45.892;-123.962;2023-05-22T09:47:02;102425.33;;;11.39;83.38
51067;BME280;37112;45.892;-123.962;2023-05-22T09:49:43;102423.01;;;11.39;83.28
51067;BME280;37112;45.892;-123.962;2023-05-22T09:52:11;102424.57;;;11.40;83.16
51067;BME280;37112;45.892;-123.962;2023-05-22T09:54:33;102426.48;;;11.41;83.21
51067;BME280;37112;45.892;-123.962;2023-05-22T09:57:01;102424.49;;;11.42;83.21
51067;BME280;37112;45.892;-123.962;2023-05-22T09:59:32;102423.51;;;11.40;83.13
51067;BME280;37112;45.892;-123.962;2023-05-22T10:01:55;102420.66;;;11.40;83.10
51067;BME280;37112;45.892;-123.962;2023-05-22T10:04:23;102417.61;;;11.37;83.14
51067;BME280;37112;45.892;-123.962;2023-05-22T10:06:50;102421.61;;;11.35;83.23
51067;BME280;37112;45.892;-123.962;2023-05-22T10:09:30;102421.06;;;11.31;83.18
51067;BME280;37112;45.892;-123.962;2023-05-22T10:12:07;102422.05;;;11.29;83.25
51067;BME280;37112;45.892;-123.962;2023-05-22T10:14:48;102420.70;;;11.27;83.14
51067;BME280;37112;45.892;-123.962;2023-05-22T10:17:24;102422.83;;;11.23;83.38
51067;BME280;37112;45.892;-123.962;2023-05-22T10:19:54;102421.51;;;11.21;83.43
51067;BME280;37112;45.892;-123.962;2023-05-22T10:22:17;102420.46;;;11.21;83.37
51067;BME280;37112;45.892;-123.962;2023-05-22T10:24:54;102420.98;;;11.21;82.80
51067;BME280;37112;45.892;-123.962;2023-05-22T10:27:14;102425.67;;;11.24;82.71
51067;BME280;37112;45.892;-123.962;2023-05-22T10:29:39;102423.34;;;11.28;82.48
51067;BME280;37112;45.892;-123.962;2023-05-22T10:32:17;102425.23;;;11.33;82.26
51067;BME280;37112;45.892;-123.962;2023-05-22T10:37:43;102425.08;;;11.40;81.53
51067;BME280;37112;45.892;-123.962;2023-05-22T10:40:14;102425.71;;;11.42;81.17
51067;BME280;37112;45.892;-123.962;2023-05-22T10:42:40;102424.25;;;11.43;80.68
51067;BME280;37112;45.892;-123.962;2023-05-22T10:45:15;102426.73;;;11.43;80.38
51067;BME280;37112;45.892;-123.962;2023-05-22T10:47:39;102422.79;;;11.45;80.30
51067;BME280;37112;45.892;-123.962;2023-05-22T10:50:12;102416.86;;;11.46;80.30
51067;BME280;37112;45.892;-123.962;2023-05-22T10:52:34;102416.08;;;11.48;79.89
51067;BME280;37112;45.892;-123.962;2023-05-22T10:54:58;102409.83;;;11.48;79.81
51067;BME280;37112;45.892;-123.962;2023-05-22T10:57:26;102412.48;;;11.48;79.61
51067;BME280;37112;45.892;-123.962;2023-05-22T10:59:51;102416.00;;;11.49;79.17
51067;BME280;37112;45.892;-123.962;2023-05-22T11:02:31;102418.45;;;11.50;79.42
51067;BME280;37112;45.892;-123.962;2023-05-22T11:05:34;102418.55;;;11.52;79.31
51067;BME280;37112;45.892;-123.962;2023-05-22T11:08:13;102427.66;;;11.51;79.23
51067;BME280;37112;45.892;-123.962;2023-05-22T11:11:12;102427.67;;;11.51;79.36
51067;BME280;37112;45.892;-123.962;2023-05-22T11:13:40;102432.27;;;11.48;78.71
51067;BME280;37112;45.892;-123.962;2023-05-22T11:16:06;102430.02;;;11.46;78.69
51067;BME280;37112;45.892;-123.962;2023-05-22T11:21:01;102429.88;;;11.41;77.93
51067;BME280;37112;45.892;-123.962;2023-05-22T11:23:28;102426.34;;;11.40;77.93
51067;BME280;37112;45.892;-123.962;2023-05-22T11:26:19;102426.75;;;11.39;77.31
51067;BME280;37112;45.892;-123.962;2023-05-22T11:28:53;102430.30;;;11.36;76.76
51067;BME280;37112;45.892;-123.962;2023-05-22T11:31:18;102423.11;;;11.33;75.90
51067;BME280;37112;45.892;-123.962;2023-05-22T11:33:48;102421.29;;;11.34;76.12
51067;BME280;37112;45.892;-123.962;2023-05-22T11:36:14;102419.95;;;11.36;76.59
51067;BME280;37112;45.892;-123.962;2023-05-22T11:38:44;102421.61;;;11.39;77.03
51067;BME280;37112;45.892;-123.962;2023-05-22T11:41:14;102415.90;;;11.39;76.68
51067;BME280;37112;45.892;-123.962;2023-05-22T11:43:34;102414.17;;;11.38;76.68
51067;BME280;37112;45.892;-123.962;2023-05-22T11:46:03;102413.24;;;11.39;76.66
51067;BME280;37112;45.892;-123.962;2023-05-22T11:48:30;102412.14;;;11.39;77.05
51067;BME280;37112;45.892;-123.962;2023-05-22T11:50:51;102412.58;;;11.38;76.49
51067;BME280;37112;45.892;-123.962;2023-05-22T11:53:24;102411.51;;;11.34;76.01
51067;BME280;37112;45.892;-123.962;2023-05-22T11:55:52;102415.61;;;11.34;75.88
51067;BME280;37112;45.892;-123.962;2023-05-22T11:58:17;102412.02;;;11.34;75.78
51067;BME280;37112;45.892;-123.962;2023-05-22T12:00:47;102406.33;;;11.35;75.64
51067;BME280;37112;45.892;-123.962;2023-05-22T12:03:15;102405.36;;;11.36;75.99
51067;BME280;37112;45.892;-123.962;2023-05-22T12:05:37;102402.11;;;11.37;75.91
51067;BME280;37112;45.892;-123.962;2023-05-22T12:07:53;102399.91;;;11.39;76.05
51067;BME280;37112;45.892;-123.962;2023-05-22T12:10:16;102403.05;;;11.40;75.81
51067;BME280;37112;45.892;-123.962;2023-05-22T12:12:42;102400.35;;;11.41;75.88
51067;BME280;37112;45.892;-123.962;2023-05-22T12:15:16;102403.19;;;11.41;75.56
51067;BME280;37112;45.892;-123.962;2023-05-22T12:17:53;102408.42;;;11.39;74.71
51067;BME280;37112;45.892;-123.962;2023-05-22T12:20:14;102406.83;;;11.39;74.14
51067;BME280;37112;45.892;-123.962;2023-05-22T12:22:48;102401.60;;;11.41;74.49
51067;BME280;37112;45.892;-123.962;2023-05-22T12:25:22;102397.63;;;11.42;74.85
51067;BME280;37112;45.892;-123.962;2023-05-22T12:27:53;102396.30;;;11.44;75.19
51067;BME280;37112;45.892;-123.962;2023-05-22T12:30:37;102392.16;;;11.46;75.13
51067;BME280;37112;45.892;-123.962;2023-05-22T12:33:18;102390.60;;;11.44;75.07
51067;BME280;37112;45.892;-123.962;2023-05-22T12:35:48;102386.67;;;11.45;75.09
51067;BME280;37112;45.892;-123.962;2023-05-22T12:38:26;102383.80;;;11.41;73.83
51067;BME280;37112;45.892;-123.962;2023-05-22T12:40:54;102384.77;;;11.39;73.74